Time;durP1;ratioP1;P1;durP2;ratioP2;P2;SDS_P1;SDS_P2;PMS_P1;PMS_P2;Temp;Humidity;BMP_temperature;BMP_pressure;BME280_temperature;BME280_humidity;BME280_pressure;Samples;Min_cycle;Max_cycle;Signal;HPM_P1;HPM_P2
2022/03/28 00:00:10;;;;;;;33.67;11.40;;;;;;;8.54;59.98;102936.88;5202019;28;20442;-59
2022/03/28 00:02:44;;;;;;;30.25;12.38;;;;;;;8.50;60.17;102930.94;5190493;28;20410;-59
2022/03/28 00:05:19;;;;;;;29.13;11.70;;;;;;;8.48;60.20;102931.94;5211440;28;20534;-59
2022/03/28 00:07:53;;;;;;;32.83;13.00;;;;;;;8.41;60.27;102917.41;5208987;28;20605;-56
2022/03/28 00:10:26;;;;;;;30.33;13.57;;;;;;;8.33;60.47;102923.09;5197768;28;20856;-58
2022/03/28 00:12:58;;;;;;;34.00;12.52;;;;;;;8.37;60.53;102919.34;5197137;28;20417;-58
2022/03/28 00:15:31;;;;;;;24.63;13.05;;;;;;;8.34;60.52;102918.66;5200949;28;20496;-58
2022/03/28 00:18:04;;;;;;;29.83;15.37;;;;;;;8.22;60.71;102909.66;5193880;28;20504;-57
2022/03/28 00:20:36;;;;;;;29.42;15.80;;;;;;;8.19;60.68;102921.19;5215302;28;20514;-58
2022/03/28 00:23:10;;;;;;;38.70;17.70;;;;;;;8.18;60.78;102903.72;5189100;28;20420;-58
2022/03/28 00:25:45;;;;;;;35.67;16.83;;;;;;;8.18;60.87;102898.44;5192632;28;21086;-58
2022/03/28 00:28:17;;;;;;;36.28;17.00;;;;;;;8.16;61.19;102889.78;5202342;28;20429;-59
2022/03/28 00:30:50;;;;;;;38.33;18.00;;;;;;;8.07;60.92;102871.84;5192363;28;20419;-58
2022/03/28 00:33:22;;;;;;;38.55;19.65;;;;;;;8.18;61.02;102887.91;5202530;28;20424;-59
2022/03/28 00:35:55;;;;;;;33.47;18.08;;;;;;;8.17;61.34;102891.47;5215015;28;20459;-58
2022/03/28 00:38:29;;;;;;;32.67;18.37;;;;;;;8.17;61.28;102880.94;5219973;28;21604;-58
2022/03/28 00:41:01;;;;;;;33.58;18.63;;;;;;;8.15;61.29;102877.56;5200585;28;20500;-59
2022/03/28 00:43:37;;;;;;;35.08;18.92;;;;;;;8.14;61.48;102875.84;5202857;28;20410;-55
2022/03/28 00:46:09;;;;;;;33.40;19.35;;;;;;;8.15;61.45;102869.66;5204669;28;20428;-59
2022/03/28 00:48:42;;;;;;;31.95;18.27;;;;;;;8.18;61.46;102869.50;5197640;28;20415;-58
2022/03/28 00:51:16;;;;;;;25.65;17.23;;;;;;;8.16;61.87;102862.63;5209948;28;20415;-58
2022/03/28 00:53:51;;;;;;;29.13;17.00;;;;;;;8.16;61.96;102862.63;5200200;28;20766;-59
2022/03/28 00:56:24;;;;;;;31.23;17.65;;;;;;;8.12;61.79;102855.81;5197191;28;20430;-57
2022/03/28 00:58:58;;;;;;;28.23;16.60;;;;;;;8.13;61.99;102866.25;5204347;28;21695;-59
2022/03/28 01:01:31;;;;;;;29.27;16.47;;;;;;;8.11;62.16;102860.22;5213992;28;20674;-58
2022/03/28 01:04:08;;;;;;;31.05;19.27;;;;;;;8.07;62.23;102858.69;5214653;28;20876;-58
2022/03/28 01:06:41;;;;;;;27.17;16.17;;;;;;;8.07;62.15;102858.69;5194040;28;21161;-59
2022/03/28 01:09:19;;;;;;;33.72;18.45;;;;;;;8.07;62.27;102848.16;5212829;28;20502;-56
2022/03/28 01:11:54;;;;;;;33.90;17.88;;;;;;;8.00;62.43;102857.34;5202166;28;20482;-58
2022/03/28 01:14:27;;;;;;;26.70;16.00;;;;;;;7.95;62.59;102833.06;5212716;28;25052;-58
2022/03/28 01:19:50;;;;;;;29.85;17.55;;;;;;;8.06;62.41;102835.97;5195514;28;20417;-58
2022/03/28 01:22:24;;;;;;;25.35;16.67;;;;;;;8.09;62.51;102836.63;5204501;28;20466;-58
2022/03/28 01:25:03;;;;;;;25.00;15.23;;;;;;;7.96;62.79;102818.94;5201150;28;21955;-57
2022/03/28 01:27:36;;;;;;;25.87;14.57;;;;;;;8.05;62.81;102831.59;5214593;28;20498;-58
2022/03/28 01:30:10;;;;;;;28.27;14.70;;;;;;;8.06;62.88;102817.53;5197126;28;20419;-60
2022/03/28 01:32:45;;;;;;;23.95;13.55;;;;;;;8.09;62.75;102814.72;5198715;28;20437;-58
2022/03/28 01:35:31;;;;;;;27.70;12.98;;;;;;;8.01;62.91;102801.97;5190947;28;20471;-57
2022/03/28 01:38:06;;;;;;;25.35;13.90;;;;;;;8.05;62.81;102802.66;5200808;28;20812;-60
2022/03/28 01:40:42;;;;;;;21.77;12.80;;;;;;;8.11;63.04;102812.84;5191250;28;20468;-60
2022/03/28 01:43:14;;;;;;;21.57;13.00;;;;;;;8.05;62.99;102808.78;5200176;28;20524;-58
2022/03/28 01:45:47;;;;;;;31.05;14.23;;;;;;;8.05;62.96;102808.78;5197869;28;20504;-59
2022/03/28 01:48:20;;;;;;;23.42;12.95;;;;;;;8.07;63.23;102806.06;5202166;28;20510;-58
2022/03/28 01:50:52;;;;;;;24.13;13.13;;;;;;;8.05;63.12;102805.28;5195076;28;20431;-57
2022/03/28 01:53:26;;;;;;;22.40;12.52;;;;;;;7.93;63.38;102784.91;5206014;28;20494;-58
2022/03/28 01:55:58;;;;;;;23.60;13.90;;;;;;;7.80;63.37;102788.25;5194268;28;20494;-59
2022/03/28 01:58:31;;;;;;;25.80;12.60;;;;;;;8.00;63.54;102805.56;5203447;28;20497;-58
2022/03/28 02:01:03;;;;;;;23.13;12.45;;;;;;;7.70;63.60;102760.72;5200109;28;20469;-58
2022/03/28 02:03:36;;;;;;;27.25;13.45;;;;;;;7.95;63.52;102794.44;5198779;28;20877;-60
2022/03/28 02:06:09;;;;;;;27.73;14.20;;;;;;;7.84;63.71;102774.00;5196168;28;20425;-59
2022/03/28 02:08:43;;;;;;;22.67;13.80;;;;;;;7.99;63.75;102790.72;5202606;28;20420;-58
2022/03/28 02:11:15;;;;;;;34.83;15.48;;;;;;;8.05;63.55;102784.22;5210957;28;20479;-57
2022/03/28 02:13:48;;;;;;;21.15;12.77;;;;;;;8.07;63.57;102785.00;5196196;28;20544;-57
2022/03/28 02:16:20;;;;;;;24.63;13.05;;;;;;;8.09;63.63;102778.72;5194742;28;20419;-59
2022/03/28 02:18:53;;;;;;;25.85;13.32;;;;;;;8.17;63.54;102780.06;5193579;28;20445;-57
2022/03/28 02:21:28;;;;;;;22.98;13.00;;;;;;;8.23;63.47;102799.00;5203122;28;20436;-56
2022/03/28 02:24:02;;;;;;;25.67;13.57;;;;;;;8.28;63.53;102777.69;5196133;28;20490;-58
2022/03/28 02:26:35;;;;;;;26.27;12.57;;;;;;;8.26;63.56;102769.88;5204909;28;20433;-57
2022/03/28 02:29:07;;;;;;;21.95;13.27;;;;;;;8.26;63.55;102756.72;5198193;28;20443;-57
2022/03/28 02:31:40;;;;;;;26.92;12.60;;;;;;;8.32;63.41;102768.69;5204167;28;20827;-59
2022/03/28 02:34:12;;;;;;;17.77;11.70;;;;;;;8.32;63.55;102759.00;5214682;28;20445;-55
2022/03/28 02:36:44;;;;;;;22.77;11.55;;;;;;;8.32;63.60;102759.00;5214152;28;20518;-57
2022/03/28 02:39:18;;;;;;;23.20;11.82;;;;;;;8.34;63.40;102756.28;5212557;28;21086;-57
2022/03/28 02:41:51;;;;;;;22.60;11.93;;;;;;;8.31;63.71;102754.66;5198759;28;20544;-56
2022/03/28 02:44:23;;;;;;;26.70;12.37;;;;;;;8.27;63.51;102752.31;5193997;28;20561;-57
2022/03/28 02:46:56;;;;;;;28.55;13.63;;;;;;;8.33;63.63;102749.34;5205232;28;20434;-57
2022/03/28 02:49:29;;;;;;;27.02;14.23;;;;;;;8.30;63.83;102742.44;5196190;28;20906;-56
2022/03/28 02:52:01;;;;;;;29.52;14.57;;;;;;;8.28;63.83;102744.31;5202472;28;20421;-57
2022/03/28 02:54:35;;;;;;;31.05;13.93;;;;;;;8.19;63.82;102723.78;5198183;28;20469;-57
2022/03/28 02:57:07;;;;;;;25.60;13.90;;;;;;;8.28;63.93;102731.16;5203253;28;20480;-58
2022/03/28 02:59:40;;;;;;;25.98;13.63;;;;;;;8.25;63.98;102715.53;5200104;28;20425;-57
2022/03/28 03:02:13;;;;;;;27.60;14.55;;;;;;;8.29;63.99;102724.94;5208130;28;20449;-57
2022/03/28 03:04:45;;;;;;;22.83;14.07;;;;;;;8.26;63.93;102726.91;5198288;28;20423;-56
2022/03/28 03:07:19;;;;;;;32.55;14.27;;;;;;;8.15;63.90;102708.28;5202861;28;20460;-56
2022/03/28 03:09:53;;;;;;;28.30;15.23;;;;;;;8.22;64.14;102720.97;5215093;28;20499;-56
2022/03/28 03:12:25;;;;;;;27.73;13.48;;;;;;;8.24;63.99;102720.91;5204998;28;20443;-57
2022/03/28 03:14:58;;;;;;;33.38;15.50;;;;;;;8.20;64.15;102709.69;5198210;28;20425;-58
2022/03/28 03:17:31;;;;;;;30.08;14.75;;;;;;;8.31;64.16;102727.50;5202829;28;20413;-58
2022/03/28 03:20:04;;;;;;;27.48;13.43;;;;;;;8.24;64.14;102710.38;5198468;28;20484;-56
2022/03/28 03:22:36;;;;;;;34.05;15.07;;;;;;;8.30;64.13;102713.50;5195697;28;20837;-58
2022/03/28 03:25:10;;;;;;;30.65;14.18;;;;;;;8.31;64.24;102709.91;5193365;28;20763;-60
2022/03/28 03:27:43;;;;;;;27.42;14.18;;;;;;;8.30;64.07;102708.22;5208415;28;20499;-58
2022/03/28 03:30:19;;;;;;;30.73;14.25;;;;;;;8.25;64.16;102707.63;5198747;28;20435;-57
2022/03/28 03:32:52;;;;;;;29.10;15.20;;;;;;;8.23;64.35;102698.97;5198221;28;20434;-58
2022/03/28 03:35:24;;;;;;;26.50;14.23;;;;;;;8.25;64.31;102702.38;5203601;28;20818;-58
2022/03/28 03:37:57;;;;;;;27.37;14.77;;;;;;;8.18;64.33;102687.88;5195144;28;20514;-58
2022/03/28 03:40:30;;;;;;;30.17;14.80;;;;;;;8.18;64.43;102687.88;5210737;28;20445;-56
2022/03/28 03:43:03;;;;;;;28.05;13.50;;;;;;;8.18;64.22;102687.88;5196594;28;20397;-58
2022/03/28 03:45:36;;;;;;;26.33;13.40;;;;;;;8.27;64.45;102691.78;5202850;28;20492;-58
2022/03/28 03:48:09;;;;;;;31.13;14.77;;;;;;;8.16;64.22;102681.84;5197791;28;20431;-50
2022/03/28 03:50:41;;;;;;;32.58;15.52;;;;;;;8.29;64.38;102684.63;5193132;28;20975;-59
2022/03/28 03:53:14;;;;;;;32.80;16.37;;;;;;;8.28;64.48;102686.41;5199644;28;20423;-58
2022/03/28 03:55:48;;;;;;;30.85;14.45;;;;;;;8.24;64.39;102690.16;5197089;28;20968;-57
2022/03/28 03:58:21;;;;;;;29.40;15.38;;;;;;;8.18;64.33;102680.00;5198649;28;20517;-59
2022/03/28 04:00:54;;;;;;;44.60;17.15;;;;;;;8.17;64.35;102707.22;5200749;28;20467;-58
2022/03/28 04:03:26;;;;;;;38.95;16.33;;;;;;;8.15;64.54;102680.16;5199751;28;20427;-57
2022/03/28 04:05:59;;;;;;;36.85;16.02;;;;;;;8.13;64.72;102684.66;5201135;28;20439;-57
2022/03/28 04:08:31;;;;;;;37.72;16.73;;;;;;;8.13;64.82;102683.81;5195210;28;20508;-58
2022/03/28 04:11:06;;;;;;;78.70;17.30;;;;;;;7.98;64.40;102648.69;5191250;28;20402;-59
2022/03/28 04:13:38;;;;;;;35.05;16.48;;;;;;;8.20;64.30;102680.72;5197786;28;20434;-53
2022/03/28 04:16:11;;;;;;;39.28;16.90;;;;;;;8.18;64.61;102672.09;5199720;28;20421;-59
2022/03/28 04:18:43;;;;;;;37.80;17.48;;;;;;;8.27;64.55;102682.09;5188998;28;20948;-58
2022/03/28 04:21:16;;;;;;;34.83;17.65;;;;;;;8.27;64.62;102676.81;5196631;28;20993;-58
2022/03/28 04:23:48;;;;;;;35.83;17.52;;;;;;;8.29;64.52;102668.81;5194319;28;20500;-58
2022/03/28 04:26:22;;;;;;;37.58;18.13;;;;;;;8.22;64.58;102663.06;5191490;28;20469;-58
2022/03/28 04:28:54;;;;;;;43.05;19.50;;;;;;;8.27;64.67;102666.28;5200535;28;20901;-59
2022/03/28 04:31:27;;;;;;;49.08;20.15;;;;;;;8.25;64.54;102660.25;5197446;28;20433;-59
2022/03/28 04:33:59;;;;;;;39.30;18.37;;;;;;;8.31;64.60;102662.53;5195060;28;20958;-59
2022/03/28 04:36:32;;;;;;;35.95;17.00;;;;;;;8.34;64.64;102650.97;5206395;28;20852;-58
2022/03/28 04:39:04;;;;;;;35.95;16.33;;;;;;;8.34;64.70;102658.88;5214574;28;20456;-58
2022/03/28 04:41:38;;;;;;;35.20;18.40;;;;;;;8.31;64.86;102656.44;5207344;28;20501;-58
2022/03/28 04:44:11;;;;;;;33.90;13.75;;;;;;;8.23;64.53;102648.97;5205492;28;20505;-59
2022/03/28 04:46:43;;;;;;;32.45;15.70;;;;;;;8.17;64.77;102651.13;5219147;28;20427;-57
2022/03/28 04:49:17;;;;;;;33.88;14.60;;;;;;;8.17;64.77;102659.84;5218651;28;20416;-58
2022/03/28 04:51:50;;;;;;;35.15;15.27;;;;;;;8.19;64.93;102651.88;5221436;28;20425;-59
2022/03/28 04:54:22;;;;;;;33.72;14.00;;;;;;;8.12;64.95;102651.41;5192963;28;20893;-58
2022/03/28 04:56:56;;;;;;;27.73;14.73;;;;;;;8.09;64.82;102651.56;5206721;28;20818;-59
2022/03/28 04:59:29;;;;;;;29.67;14.77;;;;;;;8.06;64.98;102644.69;5215668;28;20426;-58
2022/03/28 05:02:01;;;;;;;35.35;15.48;;;;;;;8.03;64.86;102638.78;5202368;28;20429;-57
2022/03/28 05:04:34;;;;;;;48.88;15.82;;;;;;;8.05;64.82;102645.66;5203712;28;20478;-57
2022/03/28 05:07:07;;;;;;;42.87;17.40;;;;;;;8.02;65.00;102645.81;5194636;28;20494;-58
2022/03/28 05:09:39;;;;;;;43.10;17.70;;;;;;;7.99;64.96;102650.38;5192347;28;20423;-58
2022/03/28 05:12:39;;;;;;;51.58;16.92;;;;;;;7.93;65.07;102642.84;5199911;28;20450;-59
2022/03/28 05:15:12;;;;;;;92.55;17.50;;;;;;;7.78;65.17;102629.66;5192247;28;20899;-57
2022/03/28 05:17:45;;;;;;;39.22;16.30;;;;;;;7.81;65.34;102641.78;5205021;28;20432;-59
2022/03/28 05:20:17;;;;;;;128.57;18.53;;;;;;;7.81;65.40;102642.63;5201548;28;20413;-59
2022/03/28 05:22:49;;;;;;;64.97;17.48;;;;;;;7.84;65.26;102645.09;5197549;28;20959;-59
2022/03/28 05:25:22;;;;;;;75.35;15.70;;;;;;;7.87;65.28;102649.34;5200878;28;20514;-58
2022/03/28 05:27:56;;;;;;;34.95;16.27;;;;;;;7.69;65.13;102621.44;5209855;28;20859;-59
2022/03/28 05:30:28;;;;;;;48.38;15.80;;;;;;;7.69;64.90;102611.78;5220918;28;20474;-59
2022/03/28 05:33:02;;;;;;;36.28;17.13;;;;;;;7.88;65.07;102632.59;5222568;28;20449;-59
2022/03/28 05:35:35;;;;;;;41.77;16.70;;;;;;;8.00;65.07;102644.22;5211866;28;20475;-57
2022/03/28 05:38:07;;;;;;;40.83;18.30;;;;;;;8.07;64.94;102653.44;5208418;28;20421;-50
2022/03/28 05:40:41;;;;;;;50.20;17.23;;;;;;;8.11;64.83;102654.09;5212969;28;20445;-58
2022/03/28 05:43:14;;;;;;;46.57;17.27;;;;;;;8.08;64.85;102649.84;5210338;28;20520;-58
2022/03/28 05:45:49;;;;;;;56.00;13.85;;;;;;;8.10;64.74;102648.00;5211766;28;20505;-58
2022/03/28 05:48:22;;;;;;;79.53;14.32;;;;;;;7.99;64.91;102645.13;5210852;28;20411;-58
2022/03/28 05:50:54;;;;;;;31.77;14.10;;;;;;;7.97;65.23;102636.50;5204005;28;20442;-59
2022/03/28 05:53:27;;;;;;;54.20;15.33;;;;;;;7.91;65.16;102628.97;5226409;28;20407;-58
2022/03/28 05:55:59;;;;;;;33.70;14.45;;;;;;;7.79;65.29;102606.81;5224701;28;20405;-59
2022/03/28 05:58:33;;;;;;;72.25;15.57;;;;;;;7.90;65.21;102620.22;5201627;28;20484;-58
2022/03/28 06:01:06;;;;;;;65.32;16.02;;;;;;;7.90;65.18;102620.22;5204667;28;20416;-58
2022/03/28 06:03:39;;;;;;;55.63;15.75;;;;;;;7.89;65.26;102618.50;5191219;28;20431;-59
2022/03/28 06:06:12;;;;;;;43.00;14.20;;;;;;;7.79;65.16;102599.78;5210086;28;21227;-58
2022/03/28 06:08:44;;;;;;;42.05;13.82;;;;;;;7.84;65.26;102600.38;5205929;28;20419;-60
2022/03/28 06:11:18;;;;;;;86.05;15.32;;;;;;;7.84;65.48;102592.47;5201552;28;20456;-58
2022/03/28 06:13:53;;;;;;;31.98;13.52;;;;;;;7.70;65.62;102589.78;5186695;28;20775;-60
2022/03/28 06:16:25;;;;;;;30.35;13.75;;;;;;;7.71;65.33;102583.63;5209961;28;20458;-58
2022/03/28 06:18:58;;;;;;;38.57;13.67;;;;;;;7.88;65.33;102584.41;5224027;28;20564;-61
2022/03/28 06:21:31;;;;;;;31.60;15.45;;;;;;;7.98;65.48;102590.81;5200543;28;20773;-60
2022/03/28 06:24:03;;;;;;;38.80;12.30;;;;;;;7.99;65.30;102597.75;5217659;28;20427;-59
2022/03/28 06:26:36;;;;;;;28.60;12.60;;;;;;;7.90;65.18;102582.50;5206491;28;20433;-60
2022/03/28 06:29:10;;;;;;;43.33;12.65;;;;;;;7.94;65.34;102584.06;5210046;28;20415;-62
2022/03/28 06:31:43;;;;;;;43.83;13.87;;;;;;;7.74;65.48;102548.38;5198130;28;20877;-57
2022/03/28 06:34:16;;;;;;;28.42;12.50;;;;;;;7.72;65.72;102542.38;5188987;28;20863;-58
2022/03/28 06:36:48;;;;;;;50.10;13.13;;;;;;;7.94;65.60;102594.56;5226582;28;20438;-59
2022/03/28 06:39:21;;;;;;;40.55;13.57;;;;;;;7.37;65.41;102480.38;5200772;28;20432;-58
2022/03/28 06:41:53;;;;;;;31.02;12.88;;;;;;;8.05;65.44;102581.63;5202683;28;20502;-58
2022/03/28 06:44:27;;;;;;;32.95;13.82;;;;;;;8.08;65.38;102581.44;5204123;28;20444;-58
2022/03/28 06:46:59;;;;;;;36.97;11.82;;;;;;;8.03;65.52;102575.63;5198931;28;21373;-57
2022/03/28 06:49:34;;;;;;;34.33;12.40;;;;;;;8.02;65.56;102582.66;5228501;28;20418;-59
2022/03/28 06:52:07;;;;;;;80.00;12.55;;;;;;;8.01;65.60;102585.38;5210370;28;20785;-59
2022/03/28 06:54:40;;;;;;;52.55;13.85;;;;;;;7.95;65.72;102580.47;5186411;28;20918;-58
2022/03/28 06:57:12;;;;;;;51.22;13.23;;;;;;;7.94;65.58;102589.31;5217874;28;20426;-58
2022/03/28 06:59:46;;;;;;;32.45;17.33;;;;;;;7.94;65.69;102594.56;5200639;28;20894;-59
2022/03/28 07:02:19;;;;;;;22.67;13.10;;;;;;;8.04;65.67;102600.97;5197586;28;20950;-59
2022/03/28 07:04:51;;;;;;;29.02;12.57;;;;;;;8.10;65.40;102608.53;5189216;28;21065;-59
2022/03/28 07:07:24;;;;;;;27.57;12.60;;;;;;;8.16;65.64;102605.53;5200381;28;20570;-59
2022/03/28 07:09:56;;;;;;;31.60;12.88;;;;;;;8.17;65.50;102595.84;5208389;28;20428;-58
2022/03/28 07:12:29;;;;;;;32.33;14.30;;;;;;;8.32;65.52;102606.31;5193425;28;20403;-60
2022/03/28 07:15:02;;;;;;;74.53;13.77;;;;;;;8.44;65.46;102603.91;5204125;28;20548;-59
2022/03/28 07:17:47;;;;;;;76.15;13.98;;;;;;;8.40;65.26;102590.09;5197490;28;20808;-60
2022/03/28 07:20:21;;;;;;;27.95;13.18;;;;;;;8.46;65.34;102596.78;5200508;28;21162;-60
2022/03/28 07:22:55;;;;;;;24.17;12.95;;;;;;;8.46;65.27;102583.63;5204396;28;20417;-59
2022/03/28 07:25:28;;;;;;;26.98;13.60;;;;;;;8.61;65.41;102600.25;5205055;28;20425;-59
2022/03/28 07:28:07;;;;;;;22.83;11.68;;;;;;;8.48;65.35;102582.56;5217551;28;21016;-58
2022/03/28 07:30:41;;;;;;;23.38;11.23;;;;;;;8.50;65.53;102585.13;5213191;28;20973;-60
2022/03/28 07:33:13;;;;;;;23.13;12.32;;;;;;;8.51;65.64;102573.63;5204838;28;20832;-58
2022/03/28 07:35:47;;;;;;;22.60;12.50;;;;;;;8.48;65.78;102572.03;5195704;28;20891;-59
2022/03/28 07:38:19;;;;;;;29.38;12.77;;;;;;;8.48;65.52;102568.53;5209036;28;20416;-60
2022/03/28 07:40:52;;;;;;;20.27;11.30;;;;;;;8.46;65.78;102580.97;5209219;28;20497;-60
2022/03/28 07:43:24;;;;;;;22.70;12.98;;;;;;;8.41;65.70;102561.97;5193926;28;20437;-59
2022/03/28 07:45:59;;;;;;;24.50;12.43;;;;;;;8.49;65.84;102570.25;5209520;28;20418;-60
2022/03/28 07:48:32;;;;;;;37.88;12.40;;;;;;;8.45;65.94;102568.72;5204667;28;20417;-59
2022/03/28 07:51:04;;;;;;;23.77;12.75;;;;;;;8.33;65.96;102554.53;5203483;28;20513;-59
2022/03/28 07:53:38;;;;;;;24.52;12.82;;;;;;;8.44;65.80;102567.06;5196930;28;20776;-59
2022/03/28 07:56:10;;;;;;;22.27;12.05;;;;;;;8.46;65.82;102573.94;5221103;28;20745;-60
2022/03/28 07:58:43;;;;;;;25.90;11.88;;;;;;;8.45;65.91;102551.16;5207933;28;20980;-59
2022/03/28 08:01:17;;;;;;;29.55;13.07;;;;;;;8.50;65.86;102556.16;5192991;28;20458;-60
2022/03/28 08:03:49;;;;;;;24.70;12.97;;;;;;;8.35;65.57;102567.56;5187962;28;20569;-59
2022/03/28 08:06:22;;;;;;;25.80;13.55;;;;;;;8.72;65.92;102564.41;5201741;28;20530;-60
2022/03/28 08:08:54;;;;;;;31.75;14.30;;;;;;;8.79;65.76;102562.22;5202589;28;20933;-60
2022/03/28 08:11:27;;;;;;;24.45;11.85;;;;;;;8.87;65.66;102559.13;5200173;28;20514;-59
2022/03/28 08:14:00;;;;;;;23.70;12.03;;;;;;;8.89;65.73;102557.25;5198105;28;20574;-59
2022/03/28 08:16:34;;;;;;;24.10;12.70;;;;;;;8.92;65.88;102562.31;5195298;28;20905;-60
2022/03/28 08:19:07;;;;;;;22.27;12.50;;;;;;;8.87;65.86;102564.41;5204328;28;20407;-59
2022/03/28 08:21:39;;;;;;;18.92;12.40;;;;;;;8.95;65.78;102572.66;5199743;28;20887;-62
2022/03/28 08:24:12;;;;;;;21.67;12.40;;;;;;;8.83;65.68;102541.84;5192552;28;20856;-58
2022/03/28 08:26:46;;;;;;;22.42;11.07;;;;;;;9.16;65.55;102566.03;5192022;28;20423;-56
2022/03/28 08:29:19;;;;;;;26.30;12.15;;;;;;;9.30;65.46;102562.50;5198270;28;20427;-58
2022/03/28 08:31:53;;;;;;;22.40;11.32;;;;;;;9.43;65.33;102567.84;5199130;28;20420;-58
2022/03/28 08:34:25;;;;;;;20.70;11.75;;;;;;;9.48;65.33;102555.19;5203020;28;20579;-59
2022/03/28 08:36:58;;;;;;;23.85;12.05;;;;;;;9.51;65.50;102554.13;5201473;28;20433;-59
2022/03/28 08:39:30;;;;;;;22.00;11.70;;;;;;;9.60;65.41;102551.75;5204676;28;20920;-59
2022/03/28 08:42:03;;;;;;;24.45;12.18;;;;;;;9.79;65.18;102559.28;5198309;28;20492;-59
2022/03/28 08:44:38;;;;;;;21.20;12.13;;;;;;;9.93;65.11;102553.06;5205135;28;20899;-56
2022/03/28 08:47:13;;;;;;;22.87;12.83;;;;;;;10.00;65.17;102554.34;5195913;28;20410;-59
2022/03/28 08:49:51;;;;;;;19.60;11.98;;;;;;;10.06;65.16;102540.72;5195060;28;20779;-59
2022/03/28 08:52:24;;;;;;;21.40;11.85;;;;;;;10.14;65.17;102543.69;5199615;28;20419;-57
2022/03/28 08:54:57;;;;;;;20.90;11.75;;;;;;;10.21;64.95;102553.84;5201159;28;20849;-59
2022/03/28 08:57:29;;;;;;;24.45;12.90;;;;;;;10.21;65.12;102553.84;5193059;28;21091;-58
2022/03/28 09:00:03;;;;;;;20.70;11.90;;;;;;;10.09;65.12;102535.25;5198922;28;20943;-58
2022/03/28 09:02:44;;;;;;;21.85;12.45;;;;;;;10.23;65.08;102546.66;5211478;28;20916;-58
2022/03/28 09:05:28;;;;;;;25.30;13.07;;;;;;;10.35;64.87;102551.13;5206807;28;20449;-58
2022/03/28 09:08:01;;;;;;;24.98;14.23;;;;;;;10.38;64.90;102529.78;5202265;28;20510;-59
2022/03/28 09:10:35;;;;;;;21.83;12.07;;;;;;;10.43;64.75;102542.66;5198365;28;20429;-60
2022/03/28 09:13:10;;;;;;;25.40;13.48;;;;;;;10.38;64.66;102529.78;5213623;28;20435;-57
2022/03/28 09:15:48;;;;;;;23.60;12.30;;;;;;;10.42;64.75;102533.91;5192614;28;20415;-58
2022/03/28 09:18:28;;;;;;;19.52;11.95;;;;;;;10.50;64.46;102534.22;5190826;28;20426;-58
2022/03/28 09:21:03;;;;;;;21.55;11.80;;;;;;;10.52;64.40;102513.81;5216634;28;20499;-58
2022/03/28 09:23:40;;;;;;;21.23;11.73;;;;;;;10.72;64.33;102527.41;5199159;28;20421;-57
2022/03/28 09:26:18;;;;;;;19.30;12.45;;;;;;;10.66;64.26;102533.13;5212387;28;20433;-59
2022/03/28 09:28:53;;;;;;;24.23;12.57;;;;;;;10.61;64.11;102521.06;5216076;28;20430;-59
2022/03/28 09:31:30;;;;;;;24.45;12.25;;;;;;;10.75;64.17;102524.56;5200217;28;21017;-58
2022/03/28 09:34:13;;;;;;;26.02;11.55;;;;;;;10.90;63.98;102527.88;5208960;28;20883;-58
2022/03/28 09:37:12;;;;;;;22.58;11.68;;;;;;;10.89;63.96;102529.69;5216949;28;20421;-59
2022/03/28 09:39:44;;;;;;;20.05;11.38;;;;;;;10.98;63.68;102522.88;5199426;28;20884;-59
2022/03/28 09:42:17;;;;;;;22.47;11.60;;;;;;;11.04;63.80;102518.00;5202923;28;20882;-59
2022/03/28 09:44:53;;;;;;;16.58;10.70;;;;;;;11.18;63.41;102527.59;5209543;28;20436;-59
2022/03/28 09:47:26;;;;;;;24.23;11.50;;;;;;;11.25;63.40;102514.75;5196241;28;20431;-58
2022/03/28 09:50:00;;;;;;;17.48;11.60;;;;;;;11.41;63.08;102523.22;5204129;28;20500;-53
2022/03/28 09:52:33;;;;;;;23.05;11.63;;;;;;;11.54;62.91;102515.22;5197692;28;20763;-53
2022/03/28 09:55:07;;;;;;;25.88;12.15;;;;;;;11.47;62.85;102498.13;5204196;28;20419;-52
2022/03/28 09:57:46;;;;;;;20.27;10.63;;;;;;;11.50;62.77;102511.97;5197547;28;20779;-57
2022/03/28 10:00:20;;;;;;;20.05;11.07;;;;;;;11.51;62.81;102516.28;5183731;28;20433;-55
2022/03/28 10:02:54;;;;;;;19.63;11.18;;;;;;;11.48;62.74;102511.22;5191272;28;20423;-56
2022/03/28 10:05:28;;;;;;;19.43;10.60;;;;;;;11.42;62.82;102481.75;5193370;28;20424;-55
2022/03/28 10:08:00;;;;;;;18.45;10.90;;;;;;;11.76;62.28;102498.56;5193751;28;20521;-53
2022/03/28 10:10:33;;;;;;;15.60;10.52;;;;;;;11.83;62.32;102465.38;5193374;28;20456;-53
2022/03/28 10:13:06;;;;;;;17.55;10.35;;;;;;;11.93;62.20;102494.66;5188311;28;20452;-54
2022/03/28 10:15:38;;;;;;;19.35;10.30;;;;;;;11.73;62.09;102457.28;5199126;28;20644;-55
2022/03/28 10:18:11;;;;;;;20.52;10.93;;;;;;;12.13;61.75;102496.59;5208115;28;20917;-51
2022/03/28 10:20:53;;;;;;;16.90;10.95;;;;;;;12.31;61.40;102501.44;5189218;28;20775;-55
2022/03/28 10:23:30;;;;;;;21.88;11.60;;;;;;;12.49;61.25;102485.91;5199076;28;20448;-53
2022/03/28 10:26:08;;;;;;;17.38;10.30;;;;;;;12.78;60.97;102496.81;5195846;28;20492;-56
2022/03/28 10:28:41;;;;;;;20.15;10.55;;;;;;;12.90;60.72;102480.75;5184095;28;20418;-53
2022/03/28 10:31:17;;;;;;;17.90;10.77;;;;;;;13.15;60.51;102482.22;5201559;28;20434;-55
2022/03/28 10:33:54;;;;;;;18.90;9.77;;;;;;;13.30;60.13;102472.19;5195273;28;20444;-53
2022/03/28 10:36:31;;;;;;;17.88;10.55;;;;;;;13.32;60.13;102461.47;5194006;28;20807;-55
2022/03/28 10:39:34;;;;;;;22.30;9.98;;;;;;;13.43;59.97;102471.16;5210676;28;20420;-54
2022/03/28 10:42:18;;;;;;;19.90;9.85;;;;;;;13.31;59.94;102476.53;5208646;28;20414;-55
2022/03/28 10:45:02;;;;;;;16.65;9.82;;;;;;;13.16;59.82;102472.44;5203194;28;20526;-54
2022/03/28 10:47:46;;;;;;;19.40;10.77;;;;;;;13.26;59.67;102460.16;5172969;28;20490;-51
2022/03/28 10:50:22;;;;;;;18.33;10.23;;;;;;;13.31;59.52;102457.94;5188995;28;20734;-55
2022/03/28 10:53:13;;;;;;;21.10;10.27;;;;;;;13.26;59.29;102448.72;5216511;28;20427;-55
2022/03/28 10:55:50;;;;;;;17.85;10.15;;;;;;;13.29;59.27;102443.16;5186823;28;20419;-55
2022/03/28 10:58:25;;;;;;;14.87;9.20;;;;;;;13.56;58.94;102450.56;5197105;28;20524;-53
2022/03/28 11:01:22;;;;;;;17.67;9.65;;;;;;;13.81;58.39;102444.88;5202515;28;20875;-54
2022/03/28 11:04:00;;;;;;;16.85;9.32;;;;;;;13.87;58.45;102440.84;5211104;28;20408;-56
2022/03/28 11:07:01;;;;;;;20.73;9.90;;;;;;;14.20;57.96;102444.22;5219147;28;20419;-53
2022/03/28 11:09:50;;;;;;;21.90;9.93;;;;;;;14.47;57.58;102435.63;5192305;28;20412;-54
2022/03/28 11:12:30;;;;;;;20.30;9.95;;;;;;;14.78;57.09;102432.91;5192972;28;20559;-53
2022/03/28 11:15:13;;;;;;;15.27;9.15;;;;;;;14.80;57.03;102433.59;5204897;28;20496;-56
2022/03/28 11:17:57;;;;;;;17.10;9.48;;;;;;;14.52;57.11;102428.09;5196764;28;20889;-54
2022/03/28 11:20:47;;;;;;;20.13;10.60;;;;;;;14.14;57.19;102416.34;5205582;28;20425;-56
2022/03/28 11:23:20;;;;;;;20.83;10.43;;;;;;;14.25;57.01;102421.56;5200554;28;20768;-57
2022/03/28 11:25:55;;;;;;;20.60;10.07;;;;;;;14.50;56.58;102427.38;5164514;28;20923;-57
2022/03/28 11:28:29;;;;;;;17.52;10.88;;;;;;;14.24;56.56;102395.94;5206260;28;20523;-53
2022/03/28 11:31:06;;;;;;;22.50;10.83;;;;;;;14.45;56.40;102417.13;5206579;28;20495;-53
2022/03/28 11:33:40;;;;;;;24.05;11.07;;;;;;;14.63;55.89;102406.72;5203259;28;20429;-56
2022/03/28 11:36:15;;;;;;;19.65;11.32;;;;;;;14.56;55.81;102386.16;5190538;28;20569;-53
2022/03/28 11:38:50;;;;;;;21.38;11.15;;;;;;;14.45;55.90;102408.31;5196422;28;20403;-55
2022/03/28 11:41:26;;;;;;;28.02;11.93;;;;;;;14.25;55.85;102381.72;5202778;28;20479;-55
2022/03/28 11:44:00;;;;;;;20.60;10.30;;;;;;;14.62;55.41;102407.69;5196218;28;21089;-56
2022/03/28 11:46:34;;;;;;;22.38;11.00;;;;;;;14.62;55.31;102381.09;5208794;28;20417;-58
2022/03/28 11:49:11;;;;;;;20.43;11.13;;;;;;;14.86;55.01;102393.16;5219797;28;20416;-56